sensor_id;sensor_type;location;lat;lon;timestamp;temperature;humidity
68387;DHT22;55338;43.062;25.624;2022-11-11T00:00:35;5.70;99.90
68387;DHT22;55338;43.062;25.624;2022-11-11T00:03:02;5.70;99.90
68387;DHT22;55338;43.062;25.624;2022-11-11T00:05:28;5.70;99.90
68387;DHT22;55338;43.062;25.624;2022-11-11T00:07:55;5.60;99.90
68387;DHT22;55338;43.062;25.624;2022-11-11T00:10:28;5.60;99.90
68387;DHT22;55338;43.062;25.624;2022-11-11T00:13:01;5.60;99.90
68387;DHT22;55338;43.062;25.624;2022-11-11T00:15:28;5.60;99.90
68387;DHT22;55338;43.062;25.624;2022-11-11T00:17:54;5.60;99.90
68387;DHT22;55338;43.062;25.624;2022-11-11T00:20:40;5.60;99.90
68387;DHT22;55338;43.062;25.624;2022-11-11T00:23:26;5.60;99.90
68387;DHT22;55338;43.062;25.624;2022-11-11T00:26:12;5.70;99.90
68387;DHT22;55338;43.062;25.624;2022-11-11T00:28:39;5.60;99.90
68387;DHT22;55338;43.062;25.624;2022-11-11T00:31:10;5.60;99.90
68387;DHT22;55338;43.062;25.624;2022-11-11T00:33:37;5.60;99.90
68387;DHT22;55338;43.062;25.624;2022-11-11T00:36:06;5.50;99.90
68387;DHT22;55338;43.062;25.624;2022-11-11T00:38:32;5.50;99.90
68387;DHT22;55338;43.062;25.624;2022-11-11T00:41:18;5.50;99.90
68387;DHT22;55338;43.062;25.624;2022-11-11T00:43:45;5.50;99.90
68387;DHT22;55338;43.062;25.624;2022-11-11T00:46:13;5.60;99.90
68387;DHT22;55338;43.062;25.624;2022-11-11T00:48:57;5.60;99.90
68387;DHT22;55338;43.062;25.624;2022-11-11T00:51:41;5.60;99.90
68387;DHT22;55338;43.062;25.624;2022-11-11T00:54:07;5.60;99.90
68387;DHT22;55338;43.062;25.624;2022-11-11T00:56:33;5.60;99.90
68387;DHT22;55338;43.062;25.624;2022-11-11T00:59:02;5.50;99.90
68387;DHT22;55338;43.062;25.624;2022-11-11T01:01:28;5.40;99.90
68387;DHT22;55338;43.062;25.624;2022-11-11T01:03:54;5.40;99.90
68387;DHT22;55338;43.062;25.624;2022-11-11T01:06:19;5.40;99.90
68387;DHT22;55338;43.062;25.624;2022-11-11T01:08:45;5.30;99.90
68387;DHT22;55338;43.062;25.624;2022-11-11T01:11:16;5.30;99.90
68387;DHT22;55338;43.062;25.624;2022-11-11T01:13:43;5.30;99.90
68387;DHT22;55338;43.062;25.624;2022-11-11T01:16:15;5.20;99.90
68387;DHT22;55338;43.062;25.624;2022-11-11T01:18:41;5.20;99.90
68387;DHT22;55338;43.062;25.624;2022-11-11T01:21:21;5.20;99.90
68387;DHT22;55338;43.062;25.624;2022-11-11T01:23:49;5.30;99.90
68387;DHT22;55338;43.062;25.624;2022-11-11T01:26:19;5.30;99.90
68387;DHT22;55338;43.062;25.624;2022-11-11T01:28:52;5.30;99.90
68387;DHT22;55338;43.062;25.624;2022-11-11T01:31:20;5.30;99.90
68387;DHT22;55338;43.062;25.624;2022-11-11T01:33:46;5.30;99.90
68387;DHT22;55338;43.062;25.624;2022-11-11T01:38:40;5.20;99.90
68387;DHT22;55338;43.062;25.624;2022-11-11T01:41:12;5.30;99.90
68387;DHT22;55338;43.062;25.624;2022-11-11T01:43:58;5.30;99.90
68387;DHT22;55338;43.062;25.624;2022-11-11T01:49:01;5.20;99.90
68387;DHT22;55338;43.062;25.624;2022-11-11T01:59:36;5.10;99.90
68387;DHT22;55338;43.062;25.624;2022-11-11T02:02:11;5.10;99.90
68387;DHT22;55338;43.062;25.624;2022-11-11T02:04:40;5.10;99.90
68387;DHT22;55338;43.062;25.624;2022-11-11T02:07:25;5.10;99.90
68387;DHT22;55338;43.062;25.624;2022-11-11T02:09:52;5.10;99.90
68387;DHT22;55338;43.062;25.624;2022-11-11T02:12:18;5.10;99.90
68387;DHT22;55338;43.062;25.624;2022-11-11T02:15:03;5.20;99.90
68387;DHT22;55338;43.062;25.624;2022-11-11T02:17:31;5.20;99.90
68387;DHT22;55338;43.062;25.624;2022-11-11T02:19:59;5.20;99.90
68387;DHT22;55338;43.062;25.624;2022-11-11T02:25:03;5.20;99.90
68387;DHT22;55338;43.062;25.624;2022-11-11T02:27:31;5.20;99.90
68387;DHT22;55338;43.062;25.624;2022-11-11T02:30:00;5.20;99.90
68387;DHT22;55338;43.062;25.624;2022-11-11T02:32:26;5.20;99.90
68387;DHT22;55338;43.062;25.624;2022-11-11T02:34:52;5.20;99.90
68387;DHT22;55338;43.062;25.624;2022-11-11T02:37:24;5.10;99.90
68387;DHT22;55338;43.062;25.624;2022-11-11T02:39:53;5.00;99.90
68387;DHT22;55338;43.062;25.624;2022-11-11T02:42:22;5.00;99.90
68387;DHT22;55338;43.062;25.624;2022-11-11T02:44:49;4.90;99.90
68387;DHT22;55338;43.062;25.624;2022-11-11T02:47:15;4.90;99.90
68387;DHT22;55338;43.062;25.624;2022-11-11T02:49:40;5.00;99.90
68387;DHT22;55338;43.062;25.624;2022-11-11T02:52:06;5.00;99.90
68387;DHT22;55338;43.062;25.624;2022-11-11T02:54:32;5.00;99.90
68387;DHT22;55338;43.062;25.624;2022-11-11T02:56:58;4.90;99.90
68387;DHT22;55338;43.062;25.624;2022-11-11T02:59:37;5.00;99.90
68387;DHT22;55338;43.062;25.624;2022-11-11T03:02:03;4.90;99.90
68387;DHT22;55338;43.062;25.624;2022-11-11T03:04:29;4.90;99.90
68387;DHT22;55338;43.062;25.624;2022-11-11T03:06:55;4.80;99.90
68387;DHT22;55338;43.062;25.624;2022-11-11T03:09:21;4.90;99.90
68387;DHT22;55338;43.062;25.624;2022-11-11T03:11:46;4.90;99.90
68387;DHT22;55338;43.062;25.624;2022-11-11T03:14:12;4.80;99.90
68387;DHT22;55338;43.062;25.624;2022-11-11T03:16:38;4.80;99.90
68387;DHT22;55338;43.062;25.624;2022-11-11T03:19:22;4.90;99.90
68387;DHT22;55338;43.062;25.624;2022-11-11T03:21:48;4.90;99.90
68387;DHT22;55338;43.062;25.624;2022-11-11T03:24:13;4.80;99.90
68387;DHT22;55338;43.062;25.624;2022-11-11T03:26:39;4.80;99.90
68387;DHT22;55338;43.062;25.624;2022-11-11T03:29:05;4.80;99.90
68387;DHT22;55338;43.062;25.624;2022-11-11T03:31:31;4.80;99.90
68387;DHT22;55338;43.062;25.624;2022-11-11T03:33:57;4.80;99.90
68387;DHT22;55338;43.062;25.624;2022-11-11T03:36:43;4.80;99.90
68387;DHT22;55338;43.062;25.624;2022-11-11T03:39:36;4.80;99.90
68387;DHT22;55338;43.062;25.624;2022-11-11T03:42:02;4.80;99.90
68387;DHT22;55338;43.062;25.624;2022-11-11T03:44:27;4.70;99.90
68387;DHT22;55338;43.062;25.624;2022-11-11T03:46:54;4.70;99.90
68387;DHT22;55338;43.062;25.624;2022-11-11T03:49:20;4.70;99.90
68387;DHT22;55338;43.062;25.624;2022-11-11T03:51:46;4.70;99.90
68387;DHT22;55338;43.062;25.624;2022-11-11T03:54:12;4.70;99.90
68387;DHT22;55338;43.062;25.624;2022-11-11T03:56:37;4.70;99.90
68387;DHT22;55338;43.062;25.624;2022-11-11T03:59:03;4.70;99.90
68387;DHT22;55338;43.062;25.624;2022-11-11T04:01:29;4.80;99.90
68387;DHT22;55338;43.062;25.624;2022-11-11T04:04:13;4.80;99.90
68387;DHT22;55338;43.062;25.624;2022-11-11T04:06:57;4.80;99.90
68387;DHT22;55338;43.062;25.624;2022-11-11T04:09:42;4.80;99.90
68387;DHT22;55338;43.062;25.624;2022-11-11T04:12:26;4.80;99.90
68387;DHT22;55338;43.062;25.624;2022-11-11T04:14:53;4.70;99.90
68387;DHT22;55338;43.062;25.624;2022-11-11T04:17:37;4.70;99.90
68387;DHT22;55338;43.062;25.624;2022-11-11T04:20:03;4.70;99.90
68387;DHT22;55338;43.062;25.624;2022-11-11T04:22:47;4.70;99.90
68387;DHT22;55338;43.062;25.624;2022-11-11T04:25:13;4.60;99.90
68387;DHT22;55338;43.062;25.624;2022-11-11T04:27:57;4.60;99.90
68387;DHT22;55338;43.062;25.624;2022-11-11T04:30:42;4.60;99.90
68387;DHT22;55338;43.062;25.624;2022-11-11T04:33:08;4.70;99.90
68387;DHT22;55338;43.062;25.624;2022-11-11T04:35:34;4.80;99.90
68387;DHT22;55338;43.062;25.624;2022-11-11T04:38:00;4.90;99.90
68387;DHT22;55338;43.062;25.624;2022-11-11T04:40:44;4.90;99.90
68387;DHT22;55338;43.062;25.624;2022-11-11T04:43:29;5.00;99.90
68387;DHT22;55338;43.062;25.624;2022-11-11T04:45:59;5.10;99.90
68387;DHT22;55338;43.062;25.624;2022-11-11T04:48:25;5.10;99.90
68387;DHT22;55338;43.062;25.624;2022-11-11T04:50:51;5.30;99.90
68387;DHT22;55338;43.062;25.624;2022-11-11T04:53:16;5.40;99.90
68387;DHT22;55338;43.062;25.624;2022-11-11T04:55:43;5.50;99.90
68387;DHT22;55338;43.062;25.624;2022-11-11T04:58:30;5.50;99.90
68387;DHT22;55338;43.062;25.624;2022-11-11T05:00:56;5.60;99.90
68387;DHT22;55338;43.062;25.624;2022-11-11T05:03:22;5.70;99.90
68387;DHT22;55338;43.062;25.624;2022-11-11T05:05:56;5.80;99.90
68387;DHT22;55338;43.062;25.624;2022-11-11T05:08:45;5.90;99.90
68387;DHT22;55338;43.062;25.624;2022-11-11T05:11:27;5.90;99.90
68387;DHT22;55338;43.062;25.624;2022-11-11T05:13:55;5.90;99.90
68387;DHT22;55338;43.062;25.624;2022-11-11T05:16:42;6.00;99.90
68387;DHT22;55338;43.062;25.624;2022-11-11T05:19:30;6.10;99.90
68387;DHT22;55338;43.062;25.624;2022-11-11T05:22:39;6.10;99.90
68387;DHT22;55338;43.062;25.624;2022-11-11T05:25:07;6.20;99.90
68387;DHT22;55338;43.062;25.624;2022-11-11T05:28:04;6.20;99.90
68387;DHT22;55338;43.062;25.624;2022-11-11T05:30:30;6.20;99.90
68387;DHT22;55338;43.062;25.624;2022-11-11T05:32:55;6.30;99.90
68387;DHT22;55338;43.062;25.624;2022-11-11T05:35:21;6.30;99.90
68387;DHT22;55338;43.062;25.624;2022-11-11T05:37:47;6.30;99.90
68387;DHT22;55338;43.062;25.624;2022-11-11T05:40:31;6.40;99.90
68387;DHT22;55338;43.062;25.624;2022-11-11T05:42:57;6.50;99.90
68387;DHT22;55338;43.062;25.624;2022-11-11T05:45:23;6.60;99.90
68387;DHT22;55338;43.062;25.624;2022-11-11T05:47:48;6.70;99.90
68387;DHT22;55338;43.062;25.624;2022-11-11T05:50:14;6.80;99.90
68387;DHT22;55338;43.062;25.624;2022-11-11T05:52:46;6.80;99.90
68387;DHT22;55338;43.062;25.624;2022-11-11T05:55:18;6.90;99.90
68387;DHT22;55338;43.062;25.624;2022-11-11T05:57:43;7.00;99.90
68387;DHT22;55338;43.062;25.624;2022-11-11T06:00:10;7.00;99.90
68387;DHT22;55338;43.062;25.624;2022-11-11T06:02:37;7.10;99.90
68387;DHT22;55338;43.062;25.624;2022-11-11T06:05:04;7.20;99.90
68387;DHT22;55338;43.062;25.624;2022-11-11T06:07:30;7.20;99.90
68387;DHT22;55338;43.062;25.624;2022-11-11T06:09:56;7.20;99.90
68387;DHT22;55338;43.062;25.624;2022-11-11T06:12:42;7.20;99.90
68387;DHT22;55338;43.062;25.624;2022-11-11T06:15:27;7.20;99.90
68387;DHT22;55338;43.062;25.624;2022-11-11T06:17:53;7.30;99.90
68387;DHT22;55338;43.062;25.624;2022-11-11T06:20:22;7.40;99.90
68387;DHT22;55338;43.062;25.624;2022-11-11T06:22:49;7.40;99.90
68387;DHT22;55338;43.062;25.624;2022-11-11T06:25:29;7.50;99.70
68387;DHT22;55338;43.062;25.624;2022-11-11T06:28:15;7.50;99.50
68387;DHT22;55338;43.062;25.624;2022-11-11T06:30:41;7.60;99.00
68387;DHT22;55338;43.062;25.624;2022-11-11T06:33:13;7.60;99.10
68387;DHT22;55338;43.062;25.624;2022-11-11T06:35:42;7.70;99.00
68387;DHT22;55338;43.062;25.624;2022-11-11T06:38:08;7.80;98.90
68387;DHT22;55338;43.062;25.624;2022-11-11T06:40:34;7.80;98.80
68387;DHT22;55338;43.062;25.624;2022-11-11T06:43:00;7.90;98.90
68387;DHT22;55338;43.062;25.624;2022-11-11T06:45:27;7.90;98.70
68387;DHT22;55338;43.062;25.624;2022-11-11T06:47:53;7.80;98.40
68387;DHT22;55338;43.062;25.624;2022-11-11T06:50:20;7.80;98.90
68387;DHT22;55338;43.062;25.624;2022-11-11T06:52:47;7.90;99.10
68387;DHT22;55338;43.062;25.624;2022-11-11T06:55:14;7.90;99.20
68387;DHT22;55338;43.062;25.624;2022-11-11T06:57:40;7.90;99.50
68387;DHT22;55338;43.062;25.624;2022-11-11T07:00:07;7.90;99.20
68387;DHT22;55338;43.062;25.624;2022-11-11T07:02:33;7.90;99.60
68387;DHT22;55338;43.062;25.624;2022-11-11T07:05:02;7.90;99.90
68387;DHT22;55338;43.062;25.624;2022-11-11T07:07:31;8.00;99.90
68387;DHT22;55338;43.062;25.624;2022-11-11T07:09:57;8.00;99.90
68387;DHT22;55338;43.062;25.624;2022-11-11T07:12:23;8.00;99.90
68387;DHT22;55338;43.062;25.624;2022-11-11T07:14:49;8.00;99.90
68387;DHT22;55338;43.062;25.624;2022-11-11T07:17:15;8.00;99.90
68387;DHT22;55338;43.062;25.624;2022-11-11T07:19:44;8.00;99.90
68387;DHT22;55338;43.062;25.624;2022-11-11T07:22:11;8.00;99.90
68387;DHT22;55338;43.062;25.624;2022-11-11T07:24:37;8.10;99.90
68387;DHT22;55338;43.062;25.624;2022-11-11T07:27:03;8.10;99.90
68387;DHT22;55338;43.062;25.624;2022-11-11T07:29:29;8.10;99.90
68387;DHT22;55338;43.062;25.624;2022-11-11T07:31:55;8.10;99.90
68387;DHT22;55338;43.062;25.624;2022-11-11T07:34:21;8.10;99.90
68387;DHT22;55338;43.062;25.624;2022-11-11T07:36:47;8.20;99.90
68387;DHT22;55338;43.062;25.624;2022-11-11T07:39:14;8.20;99.90
68387;DHT22;55338;43.062;25.624;2022-11-11T07:41:40;8.20;99.90
68387;DHT22;55338;43.062;25.624;2022-11-11T07:44:06;8.20;99.90
68387;DHT22;55338;43.062;25.624;2022-11-11T07:46:32;8.20;99.90
68387;DHT22;55338;43.062;25.624;2022-11-11T07:48:58;8.20;99.90
68387;DHT22;55338;43.062;25.624;2022-11-11T07:51:24;8.20;99.90
68387;DHT22;55338;43.062;25.624;2022-11-11T07:53:50;8.20;99.90
68387;DHT22;55338;43.062;25.624;2022-11-11T07:56:16;8.20;99.90
68387;DHT22;55338;43.062;25.624;2022-11-11T07:58:42;8.20;99.90
68387;DHT22;55338;43.062;25.624;2022-11-11T08:01:08;8.30;99.90
68387;DHT22;55338;43.062;25.624;2022-11-11T08:03:35;7.90;99.90
68387;DHT22;55338;43.062;25.624;2022-11-11T08:06:21;8.30;99.90
68387;DHT22;55338;43.062;25.624;2022-11-11T08:08:48;8.00;99.90
68387;DHT22;55338;43.062;25.624;2022-11-11T08:11:15;8.40;99.90
68387;DHT22;55338;43.062;25.624;2022-11-11T08:14:03;8.30;99.90
68387;DHT22;55338;43.062;25.624;2022-11-11T08:16:29;8.30;99.90
68387;DHT22;55338;43.062;25.624;2022-11-11T08:18:54;8.40;99.90
68387;DHT22;55338;43.062;25.624;2022-11-11T08:21:23;8.40;99.90
68387;DHT22;55338;43.062;25.624;2022-11-11T08:23:48;8.50;99.90
68387;DHT22;55338;43.062;25.624;2022-11-11T08:26:14;8.50;99.90
68387;DHT22;55338;43.062;25.624;2022-11-11T08:28:40;8.60;99.90
68387;DHT22;55338;43.062;25.624;2022-11-11T08:31:06;8.60;99.90
68387;DHT22;55338;43.062;25.624;2022-11-11T08:33:32;8.60;99.90
68387;DHT22;55338;43.062;25.624;2022-11-11T08:35:58;8.70;99.90
68387;DHT22;55338;43.062;25.624;2022-11-11T08:38:25;8.70;99.90
68387;DHT22;55338;43.062;25.624;2022-11-11T08:40:51;8.70;99.90
68387;DHT22;55338;43.062;25.624;2022-11-11T08:43:17;8.80;99.90
68387;DHT22;55338;43.062;25.624;2022-11-11T08:45:43;8.70;99.90
68387;DHT22;55338;43.062;25.624;2022-11-11T08:48:10;8.80;99.90
68387;DHT22;55338;43.062;25.624;2022-11-11T08:50:40;8.80;99.90
68387;DHT22;55338;43.062;25.624;2022-11-11T08:53:09;8.80;99.90
68387;DHT22;55338;43.062;25.624;2022-11-11T08:55:35;8.90;99.90
68387;DHT22;55338;43.062;25.624;2022-11-11T08:58:04;9.00;99.90
68387;DHT22;55338;43.062;25.624;2022-11-11T09:00:30;9.00;99.90
68387;DHT22;55338;43.062;25.624;2022-11-11T09:03:01;9.00;99.90
68387;DHT22;55338;43.062;25.624;2022-11-11T09:05:27;9.10;99.90
68387;DHT22;55338;43.062;25.624;2022-11-11T09:07:53;9.10;99.90
68387;DHT22;55338;43.062;25.624;2022-11-11T09:10:19;9.20;99.90
68387;DHT22;55338;43.062;25.624;2022-11-11T09:12:45;9.30;99.90
68387;DHT22;55338;43.062;25.624;2022-11-11T09:15:14;9.30;99.90
68387;DHT22;55338;43.062;25.624;2022-11-11T09:17:46;9.40;99.90
68387;DHT22;55338;43.062;25.624;2022-11-11T09:20:16;9.40;99.90
68387;DHT22;55338;43.062;25.624;2022-11-11T09:22:47;9.50;99.90
68387;DHT22;55338;43.062;25.624;2022-11-11T09:25:16;9.40;99.90
68387;DHT22;55338;43.062;25.624;2022-11-11T09:28:03;9.40;99.90
68387;DHT22;55338;43.062;25.624;2022-11-11T09:30:30;9.50;99.90
68387;DHT22;55338;43.062;25.624;2022-11-11T09:33:01;9.50;99.90
68387;DHT22;55338;43.062;25.624;2022-11-11T09:35:27;9.50;99.90
68387;DHT22;55338;43.062;25.624;2022-11-11T09:37:58;9.60;99.90
68387;DHT22;55338;43.062;25.624;2022-11-11T09:40:31;9.60;99.90
68387;DHT22;55338;43.062;25.624;2022-11-11T09:43:23;9.60;99.90
68387;DHT22;55338;43.062;25.624;2022-11-11T09:51:22;9.70;99.90
68387;DHT22;55338;43.062;25.624;2022-11-11T09:54:06;9.70;99.90
68387;DHT22;55338;43.062;25.624;2022-11-11T09:56:36;9.80;99.90
68387;DHT22;55338;43.062;25.624;2022-11-11T09:59:17;9.80;99.90
68387;DHT22;55338;43.062;25.624;2022-11-11T10:01:55;9.90;99.90
68387;DHT22;55338;43.062;25.624;2022-11-11T10:06:59;10.00;99.90
68387;DHT22;55338;43.062;25.624;2022-11-11T10:09:37;10.10;99.90
68387;DHT22;55338;43.062;25.624;2022-11-11T10:12:09;10.20;99.90
68387;DHT22;55338;43.062;25.624;2022-11-11T10:14:38;10.40;99.90
68387;DHT22;55338;43.062;25.624;2022-11-11T10:20:24;10.70;99.90
68387;DHT22;55338;43.062;25.624;2022-11-11T10:23:19;10.80;99.90
68387;DHT22;55338;43.062;25.624;2022-11-11T10:25:53;10.80;99.90
68387;DHT22;55338;43.062;25.624;2022-11-11T10:28:27;10.80;99.90
68387;DHT22;55338;43.062;25.624;2022-11-11T10:30:54;10.90;99.90
68387;DHT22;55338;43.062;25.624;2022-11-11T10:33:27;11.00;99.90
68387;DHT22;55338;43.062;25.624;2022-11-11T10:35:58;11.10;99.90
68387;DHT22;55338;43.062;25.624;2022-11-11T10:41:16;11.20;99.90
68387;DHT22;55338;43.062;25.624;2022-11-11T10:43:46;11.30;99.90
68387;DHT22;55338;43.062;25.624;2022-11-11T10:46:36;11.40;99.90
68387;DHT22;55338;43.062;25.624;2022-11-11T10:49:34;11.50;99.90
68387;DHT22;55338;43.062;25.624;2022-11-11T10:52:09;11.60;99.90
68387;DHT22;55338;43.062;25.624;2022-11-11T10:54:40;11.60;99.90
68387;DHT22;55338;43.062;25.624;2022-11-11T10:57:28;11.70;99.90
68387;DHT22;55338;43.062;25.624;2022-11-11T11:00:08;11.60;99.90
68387;DHT22;55338;43.062;25.624;2022-11-11T11:08:22;12.20;99.90
68387;DHT22;55338;43.062;25.624;2022-11-11T11:14:04;12.30;99.90
68387;DHT22;55338;43.062;25.624;2022-11-11T11:16:38;12.40;99.90
68387;DHT22;55338;43.062;25.624;2022-11-11T11:19:18;12.40;99.90
68387;DHT22;55338;43.062;25.624;2022-11-11T11:24:25;12.40;99.90
68387;DHT22;55338;43.062;25.624;2022-11-11T11:26:56;12.30;99.90
68387;DHT22;55338;43.062;25.624;2022-11-11T11:32:20;12.30;99.90
68387;DHT22;55338;43.062;25.624;2022-11-11T11:37:16;12.10;99.90
68387;DHT22;55338;43.062;25.624;2022-11-11T11:39:45;12.00;99.90
68387;DHT22;55338;43.062;25.624;2022-11-11T11:42:47;12.00;99.90
68387;DHT22;55338;43.062;25.624;2022-11-11T11:45:28;11.80;99.90
68387;DHT22;55338;43.062;25.624;2022-11-11T11:50:51;11.80;99.90
68387;DHT22;55338;43.062;25.624;2022-11-11T11:56:06;11.70;99.90
68387;DHT22;55338;43.062;25.624;2022-11-11T12:04:50;11.70;99.90
68387;DHT22;55338;43.062;25.624;2022-11-11T12:20:56;11.70;99.90
68387;DHT22;55338;43.062;25.624;2022-11-11T12:26:50;11.70;99.90
68387;DHT22;55338;43.062;25.624;2022-11-11T12:38:13;11.60;99.90
68387;DHT22;55338;43.062;25.624;2022-11-11T12:46:10;11.70;99.90
68387;DHT22;55338;43.062;25.624;2022-11-11T12:49:06;11.70;99.90
68387;DHT22;55338;43.062;25.624;2022-11-11T13:03:20;12.00;99.90
68387;DHT22;55338;43.062;25.624;2022-11-11T13:09:40;12.20;99.90
68387;DHT22;55338;43.062;25.624;2022-11-11T13:17:13;12.20;99.90
68387;DHT22;55338;43.062;25.624;2022-11-11T13:19:48;12.30;99.90
68387;DHT22;55338;43.062;25.624;2022-11-11T13:22:24;12.20;99.90
68387;DHT22;55338;43.062;25.624;2022-11-11T13:24:51;12.20;99.90
68387;DHT22;55338;43.062;25.624;2022-11-11T13:27:47;12.20;99.90
68387;DHT22;55338;43.062;25.624;2022-11-11T13:33:21;12.20;99.90
68387;DHT22;55338;43.062;25.624;2022-11-11T13:35:50;12.30;99.90
68387;DHT22;55338;43.062;25.624;2022-11-11T13:38:36;12.30;99.90
68387;DHT22;55338;43.062;25.624;2022-11-11T13:41:07;12.20;99.90
68387;DHT22;55338;43.062;25.624;2022-11-11T13:46:11;12.10;99.90
68387;DHT22;55338;43.062;25.624;2022-11-11T13:48:48;12.10;99.90
68387;DHT22;55338;43.062;25.624;2022-11-11T13:51:34;12.10;99.90
68387;DHT22;55338;43.062;25.624;2022-11-11T13:56:49;12.10;99.90
68387;DHT22;55338;43.062;25.624;2022-11-11T14:02:12;12.00;99.90
68387;DHT22;55338;43.062;25.624;2022-11-11T14:57:48;11.20;99.90
68387;DHT22;55338;43.062;25.624;2022-11-11T15:00:26;11.20;99.90
68387;DHT22;55338;43.062;25.624;2022-11-11T15:03:16;11.20;99.90
68387;DHT22;55338;43.062;25.624;2022-11-11T15:18:51;11.30;99.90
68387;DHT22;55338;43.062;25.624;2022-11-11T15:21:55;11.30;99.90
68387;DHT22;55338;43.062;25.624;2022-11-11T15:24:32;11.30;99.90
68387;DHT22;55338;43.062;25.624;2022-11-11T15:37:47;11.40;99.90
68387;DHT22;55338;43.062;25.624;2022-11-11T15:40:52;11.30;99.90
68387;DHT22;55338;43.062;25.624;2022-11-11T15:43:22;11.40;99.90
68387;DHT22;55338;43.062;25.624;2022-11-11T15:45:54;11.40;99.90
68387;DHT22;55338;43.062;25.624;2022-11-11T15:48:29;11.40;99.90
68387;DHT22;55338;43.062;25.624;2022-11-11T15:50:57;11.40;99.90
68387;DHT22;55338;43.062;25.624;2022-11-11T15:53:26;11.30;99.90
68387;DHT22;55338;43.062;25.624;2022-11-11T15:55:57;11.30;99.90
68387;DHT22;55338;43.062;25.624;2022-11-11T15:58:32;11.40;99.90
68387;DHT22;55338;43.062;25.624;2022-11-11T16:01:03;11.40;99.90
68387;DHT22;55338;43.062;25.624;2022-11-11T16:03:48;11.40;99.90
68387;DHT22;55338;43.062;25.624;2022-11-11T16:06:14;11.30;99.90
68387;DHT22;55338;43.062;25.624;2022-11-11T16:08:51;11.20;99.90
68387;DHT22;55338;43.062;25.624;2022-11-11T16:11:18;11.20;99.90
68387;DHT22;55338;43.062;25.624;2022-11-11T16:13:52;11.20;99.90
68387;DHT22;55338;43.062;25.624;2022-11-11T16:16:27;11.20;99.90
68387;DHT22;55338;43.062;25.624;2022-11-11T16:19:19;11.20;99.90
68387;DHT22;55338;43.062;25.624;2022-11-11T16:22:20;11.20;99.90
68387;DHT22;55338;43.062;25.624;2022-11-11T16:24:46;11.20;99.90
68387;DHT22;55338;43.062;25.624;2022-11-11T16:27:20;11.10;99.90
68387;DHT22;55338;43.062;25.624;2022-11-11T16:29:47;11.10;99.90
68387;DHT22;55338;43.062;25.624;2022-11-11T16:34:52;11.00;99.90
68387;DHT22;55338;43.062;25.624;2022-11-11T16:37:20;11.00;99.90
68387;DHT22;55338;43.062;25.624;2022-11-11T16:39:46;11.00;99.90
68387;DHT22;55338;43.062;25.624;2022-11-11T16:42:23;10.90;99.90
68387;DHT22;55338;43.062;25.624;2022-11-11T16:45:19;10.90;99.90
68387;DHT22;55338;43.062;25.624;2022-11-11T16:47:47;10.80;99.90
68387;DHT22;55338;43.062;25.624;2022-11-11T16:50:27;10.80;99.90
68387;DHT22;55338;43.062;25.624;2022-11-11T16:52:57;10.70;99.90
68387;DHT22;55338;43.062;25.624;2022-11-11T16:55:45;10.70;99.90
68387;DHT22;55338;43.062;25.624;2022-11-11T16:58:19;10.70;99.90
68387;DHT22;55338;43.062;25.624;2022-11-11T17:00:46;10.70;99.90
68387;DHT22;55338;43.062;25.624;2022-11-11T17:03:18;10.80;99.90
68387;DHT22;55338;43.062;25.624;2022-11-11T17:08:34;10.80;99.90
68387;DHT22;55338;43.062;25.624;2022-11-11T17:11:01;10.90;99.90
68387;DHT22;55338;43.062;25.624;2022-11-11T17:13:27;10.90;99.90
68387;DHT22;55338;43.062;25.624;2022-11-11T17:15:55;10.90;99.90
68387;DHT22;55338;43.062;25.624;2022-11-11T17:18:23;10.90;99.90
68387;DHT22;55338;43.062;25.624;2022-11-11T17:20:49;10.90;99.90
68387;DHT22;55338;43.062;25.624;2022-11-11T17:23:16;10.80;99.90
68387;DHT22;55338;43.062;25.624;2022-11-11T17:25:43;10.90;99.90
68387;DHT22;55338;43.062;25.624;2022-11-11T17:28:08;10.80;99.90
68387;DHT22;55338;43.062;25.624;2022-11-11T17:30:35;10.90;99.90
68387;DHT22;55338;43.062;25.624;2022-11-11T17:33:01;10.90;99.90
68387;DHT22;55338;43.062;25.624;2022-11-11T17:35:26;10.90;99.90
68387;DHT22;55338;43.062;25.624;2022-11-11T17:37:52;10.80;99.90
68387;DHT22;55338;43.062;25.624;2022-11-11T17:40:18;10.80;99.90
68387;DHT22;55338;43.062;25.624;2022-11-11T17:42:44;10.80;99.90
68387;DHT22;55338;43.062;25.624;2022-11-11T17:45:09;10.90;99.90
68387;DHT22;55338;43.062;25.624;2022-11-11T17:47:36;10.80;99.90
68387;DHT22;55338;43.062;25.624;2022-11-11T17:50:01;10.80;99.90
68387;DHT22;55338;43.062;25.624;2022-11-11T17:52:27;10.80;99.90
68387;DHT22;55338;43.062;25.624;2022-11-11T17:54:53;10.80;99.90
68387;DHT22;55338;43.062;25.624;2022-11-11T17:57:18;10.80;99.90
68387;DHT22;55338;43.062;25.624;2022-11-11T17:59:44;10.80;99.90
68387;DHT22;55338;43.062;25.624;2022-11-11T18:02:11;10.80;99.90
68387;DHT22;55338;43.062;25.624;2022-11-11T18:04:37;10.80;99.90
68387;DHT22;55338;43.062;25.624;2022-11-11T18:07:04;10.80;99.90
68387;DHT22;55338;43.062;25.624;2022-11-11T18:09:30;10.80;99.90
68387;DHT22;55338;43.062;25.624;2022-11-11T18:11:55;10.80;99.90
68387;DHT22;55338;43.062;25.624;2022-11-11T18:14:21;10.80;99.90
68387;DHT22;55338;43.062;25.624;2022-11-11T18:16:47;10.80;99.90
68387;DHT22;55338;43.062;25.624;2022-11-11T18:19:13;10.70;99.90
68387;DHT22;55338;43.062;25.624;2022-11-11T18:21:39;10.70;99.90
68387;DHT22;55338;43.062;25.624;2022-11-11T18:24:09;10.70;99.90
68387;DHT22;55338;43.062;25.624;2022-11-11T18:26:36;10.70;99.90
68387;DHT22;55338;43.062;25.624;2022-11-11T18:29:07;10.70;99.90
68387;DHT22;55338;43.062;25.624;2022-11-11T18:31:34;10.70;99.90
68387;DHT22;55338;43.062;25.624;2022-11-11T18:34:00;10.70;99.90
68387;DHT22;55338;43.062;25.624;2022-11-11T18:36:26;10.70;99.90
68387;DHT22;55338;43.062;25.624;2022-11-11T18:38:53;10.70;99.90
68387;DHT22;55338;43.062;25.624;2022-11-11T18:41:20;10.70;99.90
68387;DHT22;55338;43.062;25.624;2022-11-11T18:43:48;10.60;99.90
68387;DHT22;55338;43.062;25.624;2022-11-11T18:46:25;10.60;99.90
68387;DHT22;55338;43.062;25.624;2022-11-11T18:48:58;10.60;99.90
68387;DHT22;55338;43.062;25.624;2022-11-11T18:51:25;10.60;99.90
68387;DHT22;55338;43.062;25.624;2022-11-11T18:53:51;10.60;99.90
68387;DHT22;55338;43.062;25.624;2022-11-11T18:56:20;10.50;99.90
68387;DHT22;55338;43.062;25.624;2022-11-11T18:58:48;10.50;99.90
68387;DHT22;55338;43.062;25.624;2022-11-11T19:01:16;10.50;99.90
68387;DHT22;55338;43.062;25.624;2022-11-11T19:03:50;10.60;99.90
68387;DHT22;55338;43.062;25.624;2022-11-11T19:06:17;10.60;99.90
68387;DHT22;55338;43.062;25.624;2022-11-11T19:08:44;10.50;99.90
68387;DHT22;55338;43.062;25.624;2022-11-11T19:11:09;10.50;99.90
68387;DHT22;55338;43.062;25.624;2022-11-11T19:13:36;10.50;99.90